createdAt,value
2022-09-16T00:00:52.837Z,4.57
2022-09-16T00:11:05.152Z,5.10
2022-09-16T00:21:10.845Z,4.90
2022-09-16T00:31:16.674Z,4.40
2022-09-16T00:41:25.066Z,4.33
2022-09-16T00:51:31.466Z,4.40
2022-09-16T01:01:37.092Z,4.17
2022-09-16T01:11:42.714Z,3.87
2022-09-16T01:22:39.801Z,3.77
2022-09-16T01:32:49.767Z,3.60
2022-09-16T01:43:16.828Z,3.70
2022-09-16T01:53:30.306Z,3.33
2022-09-16T02:03:41.074Z,3.13
2022-09-16T02:13:48.897Z,3.33
2022-09-16T02:23:58.285Z,2.80
2022-09-16T02:34:12.209Z,2.70
2022-09-16T02:44:14.405Z,2.70
2022-09-16T02:54:47.531Z,3.00
2022-09-16T03:04:53.248Z,3.60
2022-09-16T03:15:36.441Z,3.43
2022-09-16T03:26:02.815Z,4.77
2022-09-16T03:36:07.581Z,3.70
2022-09-16T03:46:18.556Z,3.67
2022-09-16T03:56:23.780Z,3.83
2022-09-16T04:06:25.868Z,3.60
2022-09-16T04:16:34.413Z,3.60
2022-09-16T04:26:36.747Z,3.70
2022-09-16T04:36:39.922Z,5.23
2022-09-16T04:46:43.483Z,4.00
2022-09-16T04:56:47.212Z,4.10
2022-09-16T05:06:51.734Z,3.60
2022-09-16T05:16:58.409Z,4.03
2022-09-16T05:27:00.545Z,3.40
2022-09-16T05:37:02.644Z,3.30
2022-09-16T05:47:07.801Z,2.90
2022-09-16T05:57:17.907Z,3.58
2022-09-16T06:07:21.131Z,3.25
2022-09-16T06:17:30.167Z,3.30
2022-09-16T06:27:35.251Z,2.80
2022-09-16T06:37:43.001Z,2.95
2022-09-16T06:47:52.598Z,2.85
2022-09-16T06:57:59.684Z,2.80
2022-09-16T07:08:05.398Z,2.58
2022-09-16T07:18:10.751Z,2.22
2022-09-16T07:28:13.506Z,1.88
2022-09-16T07:38:17.855Z,1.20
2022-09-16T07:48:32.521Z,1.30
2022-09-16T07:58:44.789Z,1.27
2022-09-16T08:08:47.989Z,0.98
2022-09-16T08:18:55.563Z,1.60
2022-09-16T08:29:09.775Z,1.17
2022-09-16T08:39:18.340Z,1.65
2022-09-16T08:49:36.641Z,1.10
2022-09-16T08:59:42.050Z,1.23
2022-09-16T09:10:36.269Z,1.10
2022-09-16T09:21:00.355Z,1.20
2022-09-16T09:31:29.519Z,0.95
2022-09-16T09:41:39.641Z,1.23
2022-09-16T09:51:50.101Z,1.60
2022-09-16T10:01:56.015Z,1.20
2022-09-16T10:12:03.761Z,1.40
2022-09-16T10:22:12.322Z,1.45
2022-09-16T10:32:19.624Z,1.40
2022-09-16T10:42:26.058Z,1.27
2022-09-16T10:52:30.299Z,1.10
2022-09-16T11:02:32.720Z,0.95
2022-09-16T11:12:48.711Z,1.25
2022-09-16T11:23:11.244Z,0.93
2022-09-16T11:33:22.454Z,1.10
2022-09-16T11:43:33.453Z,1.20
2022-09-16T11:53:58.883Z,0.75
2022-09-16T12:04:17.687Z,1.02
2022-09-16T12:14:50.348Z,1.13
2022-09-16T12:25:15.542Z,1.23
2022-09-16T12:35:27.243Z,1.00
2022-09-16T12:46:11.298Z,1.58
2022-09-16T12:56:26.520Z,1.08
2022-09-16T13:06:38.280Z,1.10
2022-09-16T13:16:51.912Z,1.17
2022-09-16T13:26:59.068Z,1.05
2022-09-16T13:37:02.317Z,1.20
2022-09-16T13:47:10.427Z,0.85
2022-09-16T13:57:26.379Z,1.15
2022-09-16T14:07:47.136Z,1.20
2022-09-16T14:17:53.483Z,1.08
2022-09-16T14:28:18.587Z,1.08
2022-09-16T14:38:44.338Z,0.90
2022-09-16T14:48:47.046Z,0.77
2022-09-16T14:58:53.281Z,1.10
2022-09-16T15:09:08.503Z,1.20
2022-09-16T15:19:21.561Z,1.23
2022-09-16T15:29:24.643Z,1.08
2022-09-16T15:39:39.100Z,1.35
2022-09-16T15:49:43.929Z,1.20
2022-09-16T15:59:57.573Z,1.00
2022-09-16T16:10:17.655Z,2.42
2022-09-16T16:20:22.963Z,1.33
2022-09-16T16:30:27.188Z,1.33
2022-09-16T16:40:31.533Z,1.23
2022-09-16T16:50:34.463Z,1.30
2022-09-16T17:00:44.723Z,1.60
2022-09-16T17:10:48.126Z,1.65
2022-09-16T17:20:50.878Z,1.70
2022-09-16T17:30:56.647Z,1.60
2022-09-16T17:41:15.334Z,2.42
2022-09-16T17:51:18.143Z,1.83
2022-09-16T18:01:22.266Z,2.03
2022-09-16T18:11:24.754Z,2.40
2022-09-16T18:21:30.484Z,2.87
2022-09-16T18:31:35.065Z,2.93
2022-09-16T18:41:41.751Z,2.50
2022-09-16T18:51:52.118Z,3.07
2022-09-16T19:01:57.193Z,2.53
2022-09-16T19:12:01.239Z,2.80
2022-09-16T19:22:08.575Z,2.80
2022-09-16T19:32:13.067Z,2.77
2022-09-16T19:42:15.124Z,2.80
2022-09-16T19:52:19.335Z,3.20
2022-09-16T20:02:26.375Z,2.77
2022-09-16T20:12:28.574Z,2.70
2022-09-16T20:22:30.746Z,3.10
2022-09-16T20:32:33.314Z,2.70
2022-09-16T20:42:35.340Z,3.30
2022-09-16T20:52:41.549Z,3.33
2022-09-16T21:02:46.322Z,3.07
2022-09-16T21:12:51.294Z,2.73
2022-09-16T21:22:56.780Z,2.87
2022-09-16T21:32:59.050Z,2.80
2022-09-16T21:43:01.110Z,3.20
2022-09-16T21:53:05.852Z,3.30
2022-09-16T22:03:10.390Z,3.20
2022-09-16T22:13:12.529Z,2.90
2022-09-16T22:23:17.137Z,2.60
2022-09-16T22:33:21.661Z,2.80
2022-09-16T22:43:23.719Z,2.47
2022-09-16T22:53:26.395Z,2.83
2022-09-16T23:03:33.273Z,2.90
2022-09-16T23:13:36.199Z,2.50
2022-09-16T23:23:41.215Z,2.27
2022-09-16T23:33:45.840Z,2.53
2022-09-16T23:43:48.989Z,2.70
2022-09-16T23:53:54.280Z,2.23
